sensor_id;sensor_type;location;lat;lon;timestamp;P1;durP1;ratioP1;P2;durP2;ratioP2
28629;SDS011;15817;42.130;24.762;2023-08-06T00:01:00;7.07;;;3.40;;
28629;SDS011;15817;42.130;24.762;2023-08-06T00:03:29;7.88;;;3.88;;
28629;SDS011;15817;42.130;24.762;2023-08-06T00:05:54;11.45;;;4.00;;
28629;SDS011;15817;42.130;24.762;2023-08-06T00:08:20;7.88;;;3.58;;
28629;SDS011;15817;42.130;24.762;2023-08-06T00:10:47;6.57;;;3.72;;
28629;SDS011;15817;42.130;24.762;2023-08-06T00:13:13;6.93;;;3.95;;
28629;SDS011;15817;42.130;24.762;2023-08-06T00:15:39;6.82;;;3.65;;
28629;SDS011;15817;42.130;24.762;2023-08-06T00:18:05;7.10;;;3.70;;
28629;SDS011;15817;42.130;24.762;2023-08-06T00:20:30;5.20;;;3.33;;
28629;SDS011;15817;42.130;24.762;2023-08-06T00:22:56;5.70;;;3.55;;
28629;SDS011;15817;42.130;24.762;2023-08-06T00:25:22;13.02;;;4.22;;
28629;SDS011;15817;42.130;24.762;2023-08-06T00:27:48;7.93;;;3.67;;
28629;SDS011;15817;42.130;24.762;2023-08-06T00:30:14;7.03;;;3.38;;
28629;SDS011;15817;42.130;24.762;2023-08-06T00:32:39;8.60;;;3.90;;
28629;SDS011;15817;42.130;24.762;2023-08-06T00:35:05;5.75;;;3.67;;
28629;SDS011;15817;42.130;24.762;2023-08-06T00:37:31;9.45;;;4.10;;
28629;SDS011;15817;42.130;24.762;2023-08-06T00:39:58;7.57;;;4.22;;
28629;SDS011;15817;42.130;24.762;2023-08-06T00:42:25;8.20;;;4.45;;
28629;SDS011;15817;42.130;24.762;2023-08-06T00:44:51;6.47;;;3.67;;
28629;SDS011;15817;42.130;24.762;2023-08-06T00:47:16;5.78;;;3.80;;
28629;SDS011;15817;42.130;24.762;2023-08-06T00:49:43;5.90;;;3.80;;
28629;SDS011;15817;42.130;24.762;2023-08-06T00:52:09;7.30;;;4.00;;
28629;SDS011;15817;42.130;24.762;2023-08-06T00:54:36;13.88;;;4.10;;
28629;SDS011;15817;42.130;24.762;2023-08-06T00:57:05;9.43;;;4.03;;
28629;SDS011;15817;42.130;24.762;2023-08-06T00:59:32;8.65;;;4.20;;
28629;SDS011;15817;42.130;24.762;2023-08-06T01:01:58;6.13;;;3.70;;
28629;SDS011;15817;42.130;24.762;2023-08-06T01:04:24;4.65;;;3.75;;
28629;SDS011;15817;42.130;24.762;2023-08-06T01:09:43;10.25;;;4.22;;
28629;SDS011;15817;42.130;24.762;2023-08-06T01:12:51;7.72;;;4.07;;
28629;SDS011;15817;42.130;24.762;2023-08-06T01:15:22;9.43;;;4.57;;
28629;SDS011;15817;42.130;24.762;2023-08-06T01:17:53;7.97;;;4.10;;
28629;SDS011;15817;42.130;24.762;2023-08-06T01:20:19;9.23;;;4.28;;
28629;SDS011;15817;42.130;24.762;2023-08-06T01:22:44;5.70;;;4.00;;
28629;SDS011;15817;42.130;24.762;2023-08-06T01:25:10;5.10;;;4.32;;
28629;SDS011;15817;42.130;24.762;2023-08-06T01:27:44;8.48;;;4.45;;
28629;SDS011;15817;42.130;24.762;2023-08-06T01:30:17;6.20;;;4.45;;
28629;SDS011;15817;42.130;24.762;2023-08-06T01:33:02;10.00;;;4.22;;
28629;SDS011;15817;42.130;24.762;2023-08-06T01:35:29;7.60;;;4.05;;
28629;SDS011;15817;42.130;24.762;2023-08-06T01:37:58;8.25;;;4.53;;
28629;SDS011;15817;42.130;24.762;2023-08-06T01:40:26;6.70;;;3.92;;
28629;SDS011;15817;42.130;24.762;2023-08-06T01:42:53;9.70;;;4.65;;
28629;SDS011;15817;42.130;24.762;2023-08-06T01:45:19;8.57;;;4.32;;
28629;SDS011;15817;42.130;24.762;2023-08-06T01:47:45;9.30;;;4.45;;
28629;SDS011;15817;42.130;24.762;2023-08-06T01:50:10;5.82;;;4.25;;
28629;SDS011;15817;42.130;24.762;2023-08-06T01:52:36;9.98;;;4.88;;
28629;SDS011;15817;42.130;24.762;2023-08-06T01:55:02;6.03;;;4.13;;
28629;SDS011;15817;42.130;24.762;2023-08-06T01:57:28;8.30;;;4.63;;
28629;SDS011;15817;42.130;24.762;2023-08-06T01:59:54;7.25;;;4.57;;
28629;SDS011;15817;42.130;24.762;2023-08-06T02:02:19;7.78;;;4.38;;
28629;SDS011;15817;42.130;24.762;2023-08-06T02:04:46;10.93;;;4.90;;
28629;SDS011;15817;42.130;24.762;2023-08-06T02:07:12;7.05;;;4.35;;
28629;SDS011;15817;42.130;24.762;2023-08-06T02:09:37;5.85;;;4.22;;
28629;SDS011;15817;42.130;24.762;2023-08-06T02:12:03;7.30;;;4.65;;
28629;SDS011;15817;42.130;24.762;2023-08-06T02:14:29;6.72;;;4.43;;
28629;SDS011;15817;42.130;24.762;2023-08-06T02:16:55;9.32;;;4.80;;
28629;SDS011;15817;42.130;24.762;2023-08-06T02:19:23;9.75;;;4.38;;
28629;SDS011;15817;42.130;24.762;2023-08-06T02:21:49;8.38;;;4.70;;
28629;SDS011;15817;42.130;24.762;2023-08-06T02:24:15;9.18;;;5.03;;
28629;SDS011;15817;42.130;24.762;2023-08-06T02:26:40;6.63;;;4.75;;
28629;SDS011;15817;42.130;24.762;2023-08-06T02:29:06;11.52;;;5.03;;
28629;SDS011;15817;42.130;24.762;2023-08-06T02:31:32;11.73;;;5.03;;
28629;SDS011;15817;42.130;24.762;2023-08-06T02:33:58;10.10;;;5.03;;
28629;SDS011;15817;42.130;24.762;2023-08-06T02:36:24;9.57;;;5.13;;
28629;SDS011;15817;42.130;24.762;2023-08-06T02:38:49;8.10;;;5.78;;
28629;SDS011;15817;42.130;24.762;2023-08-06T02:41:15;7.20;;;5.75;;
28629;SDS011;15817;42.130;24.762;2023-08-06T02:43:41;9.40;;;5.35;;
28629;SDS011;15817;42.130;24.762;2023-08-06T02:46:07;11.00;;;6.40;;
28629;SDS011;15817;42.130;24.762;2023-08-06T02:48:33;12.40;;;6.40;;
28629;SDS011;15817;42.130;24.762;2023-08-06T02:50:59;17.27;;;6.15;;
28629;SDS011;15817;42.130;24.762;2023-08-06T02:53:26;8.30;;;6.13;;
28629;SDS011;15817;42.130;24.762;2023-08-06T02:55:52;10.73;;;6.53;;
28629;SDS011;15817;42.130;24.762;2023-08-06T02:58:23;9.23;;;5.93;;
28629;SDS011;15817;42.130;24.762;2023-08-06T03:01:05;8.68;;;5.68;;
28629;SDS011;15817;42.130;24.762;2023-08-06T03:03:42;18.80;;;6.68;;
28629;SDS011;15817;42.130;24.762;2023-08-06T03:06:08;7.57;;;5.80;;
28629;SDS011;15817;42.130;24.762;2023-08-06T03:08:43;7.88;;;5.82;;
28629;SDS011;15817;42.130;24.762;2023-08-06T03:11:09;9.43;;;5.60;;
28629;SDS011;15817;42.130;24.762;2023-08-06T03:13:34;8.68;;;6.05;;
28629;SDS011;15817;42.130;24.762;2023-08-06T03:16:01;11.90;;;6.07;;
28629;SDS011;15817;42.130;24.762;2023-08-06T03:18:28;7.18;;;5.95;;
28629;SDS011;15817;42.130;24.762;2023-08-06T03:20:57;8.93;;;5.82;;
28629;SDS011;15817;42.130;24.762;2023-08-06T03:23:25;10.23;;;5.88;;
28629;SDS011;15817;42.130;24.762;2023-08-06T03:25:52;10.55;;;6.32;;
28629;SDS011;15817;42.130;24.762;2023-08-06T03:28:18;9.40;;;6.68;;
28629;SDS011;15817;42.130;24.762;2023-08-06T03:30:48;8.05;;;6.32;;
28629;SDS011;15817;42.130;24.762;2023-08-06T03:33:24;11.63;;;7.10;;
28629;SDS011;15817;42.130;24.762;2023-08-06T03:35:50;9.90;;;7.88;;
28629;SDS011;15817;42.130;24.762;2023-08-06T03:38:17;14.63;;;8.30;;
28629;SDS011;15817;42.130;24.762;2023-08-06T03:40:43;11.90;;;8.07;;
28629;SDS011;15817;42.130;24.762;2023-08-06T03:43:09;11.05;;;8.13;;
28629;SDS011;15817;42.130;24.762;2023-08-06T03:45:35;10.77;;;8.48;;
28629;SDS011;15817;42.130;24.762;2023-08-06T03:48:01;12.15;;;8.95;;
28629;SDS011;15817;42.130;24.762;2023-08-06T03:50:27;13.93;;;9.18;;
28629;SDS011;15817;42.130;24.762;2023-08-06T03:52:53;10.65;;;8.88;;
28629;SDS011;15817;42.130;24.762;2023-08-06T03:55:20;14.75;;;9.43;;
28629;SDS011;15817;42.130;24.762;2023-08-06T03:57:47;11.18;;;9.20;;
28629;SDS011;15817;42.130;24.762;2023-08-06T04:00:12;12.05;;;9.20;;
28629;SDS011;15817;42.130;24.762;2023-08-06T04:02:41;14.23;;;9.65;;
28629;SDS011;15817;42.130;24.762;2023-08-06T04:05:09;12.63;;;8.57;;
28629;SDS011;15817;42.130;24.762;2023-08-06T04:07:35;12.30;;;9.85;;
28629;SDS011;15817;42.130;24.762;2023-08-06T04:10:02;16.85;;;10.15;;
28629;SDS011;15817;42.130;24.762;2023-08-06T04:12:29;13.90;;;9.95;;
28629;SDS011;15817;42.130;24.762;2023-08-06T04:14:56;12.30;;;9.63;;
28629;SDS011;15817;42.130;24.762;2023-08-06T04:17:23;13.45;;;10.15;;
28629;SDS011;15817;42.130;24.762;2023-08-06T04:19:52;12.38;;;9.82;;
28629;SDS011;15817;42.130;24.762;2023-08-06T04:22:19;12.80;;;9.07;;
28629;SDS011;15817;42.130;24.762;2023-08-06T04:24:46;14.43;;;10.48;;
28629;SDS011;15817;42.130;24.762;2023-08-06T04:27:12;12.13;;;10.45;;
28629;SDS011;15817;42.130;24.762;2023-08-06T04:29:39;12.10;;;10.50;;
28629;SDS011;15817;42.130;24.762;2023-08-06T04:32:07;14.02;;;10.82;;
28629;SDS011;15817;42.130;24.762;2023-08-06T04:34:35;12.52;;;11.23;;
28629;SDS011;15817;42.130;24.762;2023-08-06T04:37:02;15.77;;;10.80;;
28629;SDS011;15817;42.130;24.762;2023-08-06T04:39:29;14.38;;;10.85;;
28629;SDS011;15817;42.130;24.762;2023-08-06T04:41:56;13.95;;;11.18;;
28629;SDS011;15817;42.130;24.762;2023-08-06T04:44:25;12.88;;;10.70;;
28629;SDS011;15817;42.130;24.762;2023-08-06T04:46:51;18.52;;;11.20;;
28629;SDS011;15817;42.130;24.762;2023-08-06T04:49:17;12.05;;;10.85;;
28629;SDS011;15817;42.130;24.762;2023-08-06T04:51:51;13.02;;;11.57;;
28629;SDS011;15817;42.130;24.762;2023-08-06T04:54:20;16.33;;;10.75;;
28629;SDS011;15817;42.130;24.762;2023-08-06T04:56:46;13.10;;;11.70;;
28629;SDS011;15817;42.130;24.762;2023-08-06T04:59:12;13.38;;;11.48;;
28629;SDS011;15817;42.130;24.762;2023-08-06T05:01:37;14.63;;;11.45;;
28629;SDS011;15817;42.130;24.762;2023-08-06T05:04:03;19.40;;;12.48;;
28629;SDS011;15817;42.130;24.762;2023-08-06T05:06:29;15.13;;;12.15;;
28629;SDS011;15817;42.130;24.762;2023-08-06T05:08:55;15.07;;;12.23;;
28629;SDS011;15817;42.130;24.762;2023-08-06T05:11:21;16.00;;;12.43;;
28629;SDS011;15817;42.130;24.762;2023-08-06T05:13:46;17.10;;;13.07;;
28629;SDS011;15817;42.130;24.762;2023-08-06T05:16:15;14.43;;;12.98;;
28629;SDS011;15817;42.130;24.762;2023-08-06T05:18:40;19.45;;;13.77;;
28629;SDS011;15817;42.130;24.762;2023-08-06T05:21:07;19.00;;;14.02;;
28629;SDS011;15817;42.130;24.762;2023-08-06T05:23:32;15.55;;;13.98;;
28629;SDS011;15817;42.130;24.762;2023-08-06T05:26:00;17.30;;;15.20;;
28629;SDS011;15817;42.130;24.762;2023-08-06T05:28:26;19.35;;;13.75;;
28629;SDS011;15817;42.130;24.762;2023-08-06T05:30:56;16.83;;;13.27;;
28629;SDS011;15817;42.130;24.762;2023-08-06T05:33:22;14.95;;;11.18;;
28629;SDS011;15817;42.130;24.762;2023-08-06T05:35:51;17.58;;;8.98;;
28629;SDS011;15817;42.130;24.762;2023-08-06T05:38:16;22.65;;;8.75;;
28629;SDS011;15817;42.130;24.762;2023-08-06T05:40:42;11.50;;;8.10;;
28629;SDS011;15817;42.130;24.762;2023-08-06T05:43:09;17.33;;;8.98;;
28629;SDS011;15817;42.130;24.762;2023-08-06T05:45:37;9.73;;;5.40;;
28629;SDS011;15817;42.130;24.762;2023-08-06T05:48:06;8.80;;;5.20;;
28629;SDS011;15817;42.130;24.762;2023-08-06T05:50:31;7.82;;;5.10;;
28629;SDS011;15817;42.130;24.762;2023-08-06T05:53:00;5.93;;;4.75;;
28629;SDS011;15817;42.130;24.762;2023-08-06T05:55:29;14.02;;;5.05;;
28629;SDS011;15817;42.130;24.762;2023-08-06T05:57:54;7.53;;;4.65;;
28629;SDS011;15817;42.130;24.762;2023-08-06T06:00:21;13.30;;;5.10;;
28629;SDS011;15817;42.130;24.762;2023-08-06T06:02:47;11.57;;;4.82;;
28629;SDS011;15817;42.130;24.762;2023-08-06T06:05:13;17.23;;;4.80;;
28629;SDS011;15817;42.130;24.762;2023-08-06T06:07:41;11.45;;;5.10;;
28629;SDS011;15817;42.130;24.762;2023-08-06T06:10:10;9.38;;;5.28;;
28629;SDS011;15817;42.130;24.762;2023-08-06T06:12:37;11.25;;;5.28;;
28629;SDS011;15817;42.130;24.762;2023-08-06T06:15:04;14.65;;;5.38;;
28629;SDS011;15817;42.130;24.762;2023-08-06T06:17:30;8.88;;;5.22;;
28629;SDS011;15817;42.130;24.762;2023-08-06T06:19:56;11.43;;;5.60;;
28629;SDS011;15817;42.130;24.762;2023-08-06T06:22:22;11.98;;;5.50;;
28629;SDS011;15817;42.130;24.762;2023-08-06T06:24:48;12.15;;;5.57;;
28629;SDS011;15817;42.130;24.762;2023-08-06T06:27:14;9.32;;;5.88;;
28629;SDS011;15817;42.130;24.762;2023-08-06T06:29:42;8.60;;;5.88;;
28629;SDS011;15817;42.130;24.762;2023-08-06T06:32:08;6.68;;;5.75;;
28629;SDS011;15817;42.130;24.762;2023-08-06T06:34:33;9.68;;;5.57;;
28629;SDS011;15817;42.130;24.762;2023-08-06T06:37:00;9.50;;;5.72;;
28629;SDS011;15817;42.130;24.762;2023-08-06T06:39:26;10.73;;;5.07;;
28629;SDS011;15817;42.130;24.762;2023-08-06T06:41:51;8.35;;;5.80;;
28629;SDS011;15817;42.130;24.762;2023-08-06T06:44:24;9.60;;;6.22;;
28629;SDS011;15817;42.130;24.762;2023-08-06T06:46:49;10.75;;;5.93;;
28629;SDS011;15817;42.130;24.762;2023-08-06T06:49:15;8.00;;;5.90;;
28629;SDS011;15817;42.130;24.762;2023-08-06T06:51:41;7.32;;;5.35;;
28629;SDS011;15817;42.130;24.762;2023-08-06T06:54:07;9.30;;;5.72;;
28629;SDS011;15817;42.130;24.762;2023-08-06T06:56:32;9.73;;;5.50;;
28629;SDS011;15817;42.130;24.762;2023-08-06T06:58:58;15.02;;;6.10;;
28629;SDS011;15817;42.130;24.762;2023-08-06T07:01:24;7.82;;;5.82;;
28629;SDS011;15817;42.130;24.762;2023-08-06T07:03:50;8.68;;;5.93;;
28629;SDS011;15817;42.130;24.762;2023-08-06T07:06:15;8.25;;;6.15;;
28629;SDS011;15817;42.130;24.762;2023-08-06T07:08:43;10.45;;;6.13;;
28629;SDS011;15817;42.130;24.762;2023-08-06T07:11:14;8.60;;;6.47;;
28629;SDS011;15817;42.130;24.762;2023-08-06T07:13:40;7.47;;;6.00;;
28629;SDS011;15817;42.130;24.762;2023-08-06T07:16:06;9.57;;;5.57;;
28629;SDS011;15817;42.130;24.762;2023-08-06T07:18:32;8.20;;;5.82;;
28629;SDS011;15817;42.130;24.762;2023-08-06T07:20:57;9.95;;;6.38;;
28629;SDS011;15817;42.130;24.762;2023-08-06T07:23:24;10.20;;;6.20;;
28629;SDS011;15817;42.130;24.762;2023-08-06T07:25:51;8.10;;;6.35;;
28629;SDS011;15817;42.130;24.762;2023-08-06T07:28:17;7.10;;;6.28;;
28629;SDS011;15817;42.130;24.762;2023-08-06T07:30:43;8.48;;;6.47;;
28629;SDS011;15817;42.130;24.762;2023-08-06T07:33:10;7.63;;;6.50;;
28629;SDS011;15817;42.130;24.762;2023-08-06T07:35:37;7.40;;;6.35;;
28629;SDS011;15817;42.130;24.762;2023-08-06T07:38:05;10.15;;;6.88;;
28629;SDS011;15817;42.130;24.762;2023-08-06T07:40:35;9.25;;;7.03;;
28629;SDS011;15817;42.130;24.762;2023-08-06T07:43:03;9.30;;;7.45;;
28629;SDS011;15817;42.130;24.762;2023-08-06T07:45:32;13.10;;;9.32;;
28629;SDS011;15817;42.130;24.762;2023-08-06T07:47:59;20.40;;;13.82;;
28629;SDS011;15817;42.130;24.762;2023-08-06T07:50:25;20.50;;;11.32;;
28629;SDS011;15817;42.130;24.762;2023-08-06T07:52:51;16.25;;;8.25;;
28629;SDS011;15817;42.130;24.762;2023-08-06T07:55:19;11.20;;;8.75;;
28629;SDS011;15817;42.130;24.762;2023-08-06T07:57:44;11.77;;;8.07;;
28629;SDS011;15817;42.130;24.762;2023-08-06T08:00:13;11.73;;;8.43;;
28629;SDS011;15817;42.130;24.762;2023-08-06T08:02:39;10.80;;;8.20;;
28629;SDS011;15817;42.130;24.762;2023-08-06T08:05:05;12.88;;;9.65;;
28629;SDS011;15817;42.130;24.762;2023-08-06T08:07:33;9.93;;;8.35;;
28629;SDS011;15817;42.130;24.762;2023-08-06T08:09:59;9.25;;;8.35;;
28629;SDS011;15817;42.130;24.762;2023-08-06T08:12:24;10.68;;;7.97;;
28629;SDS011;15817;42.130;24.762;2023-08-06T08:14:50;11.18;;;8.20;;
28629;SDS011;15817;42.130;24.762;2023-08-06T08:17:16;11.13;;;8.02;;
28629;SDS011;15817;42.130;24.762;2023-08-06T08:19:42;10.50;;;8.02;;
28629;SDS011;15817;42.130;24.762;2023-08-06T08:22:08;10.98;;;9.00;;
28629;SDS011;15817;42.130;24.762;2023-08-06T08:24:34;15.15;;;9.43;;
28629;SDS011;15817;42.130;24.762;2023-08-06T08:27:02;11.57;;;8.25;;
28629;SDS011;15817;42.130;24.762;2023-08-06T08:29:28;13.10;;;9.55;;
28629;SDS011;15817;42.130;24.762;2023-08-06T08:31:54;12.15;;;9.45;;
28629;SDS011;15817;42.130;24.762;2023-08-06T08:34:20;10.65;;;9.02;;
28629;SDS011;15817;42.130;24.762;2023-08-06T08:36:46;13.07;;;9.45;;
28629;SDS011;15817;42.130;24.762;2023-08-06T08:39:13;10.18;;;9.00;;
28629;SDS011;15817;42.130;24.762;2023-08-06T08:41:39;12.20;;;9.88;;
28629;SDS011;15817;42.130;24.762;2023-08-06T08:44:07;14.20;;;8.85;;
28629;SDS011;15817;42.130;24.762;2023-08-06T08:46:40;9.40;;;8.15;;
28629;SDS011;15817;42.130;24.762;2023-08-06T08:49:07;10.88;;;8.52;;
28629;SDS011;15817;42.130;24.762;2023-08-06T08:51:33;9.02;;;7.15;;
28629;SDS011;15817;42.130;24.762;2023-08-06T08:54:03;8.10;;;7.30;;
28629;SDS011;15817;42.130;24.762;2023-08-06T08:56:29;8.27;;;7.00;;
28629;SDS011;15817;42.130;24.762;2023-08-06T08:58:56;10.40;;;7.45;;
28629;SDS011;15817;42.130;24.762;2023-08-06T09:01:22;7.38;;;6.68;;
28629;SDS011;15817;42.130;24.762;2023-08-06T09:03:49;9.25;;;7.25;;
28629;SDS011;15817;42.130;24.762;2023-08-06T09:06:15;9.05;;;7.10;;
28629;SDS011;15817;42.130;24.762;2023-08-06T09:09:06;8.70;;;7.68;;
28629;SDS011;15817;42.130;24.762;2023-08-06T09:11:39;10.05;;;8.25;;
28629;SDS011;15817;42.130;24.762;2023-08-06T09:14:08;10.27;;;8.27;;
28629;SDS011;15817;42.130;24.762;2023-08-06T09:16:36;10.40;;;8.18;;
28629;SDS011;15817;42.130;24.762;2023-08-06T09:19:08;8.40;;;7.60;;
28629;SDS011;15817;42.130;24.762;2023-08-06T09:21:38;8.55;;;7.55;;
28629;SDS011;15817;42.130;24.762;2023-08-06T09:24:09;8.98;;;6.38;;
28629;SDS011;15817;42.130;24.762;2023-08-06T09:26:43;10.65;;;6.70;;
28629;SDS011;15817;42.130;24.762;2023-08-06T09:29:09;7.47;;;6.38;;
28629;SDS011;15817;42.130;24.762;2023-08-06T09:34:16;6.80;;;5.68;;
28629;SDS011;15817;42.130;24.762;2023-08-06T09:36:46;6.43;;;4.93;;
28629;SDS011;15817;42.130;24.762;2023-08-06T09:39:13;4.18;;;3.78;;
28629;SDS011;15817;42.130;24.762;2023-08-06T09:41:40;5.30;;;3.75;;
28629;SDS011;15817;42.130;24.762;2023-08-06T09:44:16;5.50;;;4.72;;
28629;SDS011;15817;42.130;24.762;2023-08-06T09:46:47;4.82;;;3.72;;
28629;SDS011;15817;42.130;24.762;2023-08-06T09:49:27;4.50;;;3.20;;
28629;SDS011;15817;42.130;24.762;2023-08-06T09:52:13;4.32;;;3.20;;
28629;SDS011;15817;42.130;24.762;2023-08-06T09:54:41;3.42;;;3.08;;
28629;SDS011;15817;42.130;24.762;2023-08-06T09:57:09;3.78;;;3.38;;
28629;SDS011;15817;42.130;24.762;2023-08-06T10:03:00;5.20;;;4.50;;
28629;SDS011;15817;42.130;24.762;2023-08-06T10:05:26;5.88;;;5.35;;
28629;SDS011;15817;42.130;24.762;2023-08-06T10:07:52;7.07;;;6.38;;
28629;SDS011;15817;42.130;24.762;2023-08-06T10:10:19;7.55;;;5.95;;
28629;SDS011;15817;42.130;24.762;2023-08-06T10:12:46;7.57;;;5.75;;
28629;SDS011;15817;42.130;24.762;2023-08-06T10:15:23;6.60;;;5.93;;
28629;SDS011;15817;42.130;24.762;2023-08-06T10:17:51;6.57;;;5.72;;
28629;SDS011;15817;42.130;24.762;2023-08-06T10:20:21;5.93;;;5.43;;
28629;SDS011;15817;42.130;24.762;2023-08-06T10:23:03;6.32;;;5.82;;
28629;SDS011;15817;42.130;24.762;2023-08-06T10:25:31;7.80;;;6.15;;
28629;SDS011;15817;42.130;24.762;2023-08-06T10:27:59;7.38;;;5.30;;
28629;SDS011;15817;42.130;24.762;2023-08-06T10:30:26;6.25;;;5.45;;
28629;SDS011;15817;42.130;24.762;2023-08-06T10:32:59;7.88;;;4.78;;
28629;SDS011;15817;42.130;24.762;2023-08-06T10:38:11;11.30;;;5.38;;
28629;SDS011;15817;42.130;24.762;2023-08-06T10:41:00;4.75;;;4.22;;
28629;SDS011;15817;42.130;24.762;2023-08-06T10:43:33;6.72;;;4.78;;
28629;SDS011;15817;42.130;24.762;2023-08-06T10:46:11;5.45;;;4.28;;
28629;SDS011;15817;42.130;24.762;2023-08-06T10:48:47;6.80;;;4.15;;
28629;SDS011;15817;42.130;24.762;2023-08-06T10:51:16;4.28;;;3.90;;
28629;SDS011;15817;42.130;24.762;2023-08-06T10:53:43;4.07;;;3.78;;
28629;SDS011;15817;42.130;24.762;2023-08-06T10:56:18;4.70;;;4.30;;
28629;SDS011;15817;42.130;24.762;2023-08-06T10:58:46;4.28;;;3.88;;
28629;SDS011;15817;42.130;24.762;2023-08-06T11:01:12;4.82;;;4.32;;
28629;SDS011;15817;42.130;24.762;2023-08-06T11:03:38;4.57;;;3.60;;
28629;SDS011;15817;42.130;24.762;2023-08-06T11:06:08;4.55;;;3.90;;
28629;SDS011;15817;42.130;24.762;2023-08-06T11:08:35;4.20;;;3.80;;
28629;SDS011;15817;42.130;24.762;2023-08-06T11:11:09;4.55;;;3.50;;
28629;SDS011;15817;42.130;24.762;2023-08-06T11:13:42;6.57;;;3.70;;
28629;SDS011;15817;42.130;24.762;2023-08-06T11:16:12;5.15;;;3.83;;
28629;SDS011;15817;42.130;24.762;2023-08-06T11:19:07;4.38;;;3.35;;
28629;SDS011;15817;42.130;24.762;2023-08-06T11:22:06;4.10;;;3.67;;
28629;SDS011;15817;42.130;24.762;2023-08-06T11:24:32;5.25;;;3.70;;
28629;SDS011;15817;42.130;24.762;2023-08-06T11:26:58;7.07;;;3.00;;
28629;SDS011;15817;42.130;24.762;2023-08-06T11:29:24;3.13;;;2.85;;
28629;SDS011;15817;42.130;24.762;2023-08-06T11:31:52;5.18;;;3.30;;
28629;SDS011;15817;42.130;24.762;2023-08-06T11:34:17;3.60;;;3.30;;
28629;SDS011;15817;42.130;24.762;2023-08-06T11:36:43;3.80;;;3.47;;
28629;SDS011;15817;42.130;24.762;2023-08-06T11:39:09;5.60;;;3.17;;
28629;SDS011;15817;42.130;24.762;2023-08-06T11:41:40;7.07;;;3.00;;
28629;SDS011;15817;42.130;24.762;2023-08-06T11:44:10;4.97;;;2.72;;
28629;SDS011;15817;42.130;24.762;2023-08-06T11:46:49;3.38;;;3.17;;
28629;SDS011;15817;42.130;24.762;2023-08-06T11:49:17;4.60;;;2.88;;
28629;SDS011;15817;42.130;24.762;2023-08-06T11:51:47;3.22;;;2.92;;
28629;SDS011;15817;42.130;24.762;2023-08-06T11:54:13;3.47;;;2.88;;
28629;SDS011;15817;42.130;24.762;2023-08-06T11:56:39;3.63;;;2.55;;
28629;SDS011;15817;42.130;24.762;2023-08-06T11:59:04;3.08;;;2.78;;
28629;SDS011;15817;42.130;24.762;2023-08-06T12:01:31;84.88;;;6.95;;
28629;SDS011;15817;42.130;24.762;2023-08-06T12:04:00;5.28;;;2.80;;
28629;SDS011;15817;42.130;24.762;2023-08-06T12:06:29;4.15;;;1.95;;
28629;SDS011;15817;42.130;24.762;2023-08-06T12:08:55;4.72;;;2.00;;
28629;SDS011;15817;42.130;24.762;2023-08-06T12:11:21;7.18;;;2.20;;
28629;SDS011;15817;42.130;24.762;2023-08-06T12:13:52;5.15;;;2.00;;
28629;SDS011;15817;42.130;24.762;2023-08-06T12:16:22;2.10;;;1.90;;
28629;SDS011;15817;42.130;24.762;2023-08-06T12:18:49;5.15;;;2.47;;
28629;SDS011;15817;42.130;24.762;2023-08-06T12:21:14;2.95;;;2.00;;
28629;SDS011;15817;42.130;24.762;2023-08-06T12:23:40;6.15;;;2.50;;
28629;SDS011;15817;42.130;24.762;2023-08-06T12:26:06;2.78;;;2.38;;
28629;SDS011;15817;42.130;24.762;2023-08-06T12:28:31;2.40;;;2.20;;
28629;SDS011;15817;42.130;24.762;2023-08-06T12:30:57;2.60;;;2.10;;
28629;SDS011;15817;42.130;24.762;2023-08-06T12:33:23;4.68;;;2.33;;
28629;SDS011;15817;42.130;24.762;2023-08-06T12:35:49;2.95;;;2.20;;
28629;SDS011;15817;42.130;24.762;2023-08-06T12:38:14;14.48;;;2.20;;
28629;SDS011;15817;42.130;24.762;2023-08-06T12:40:40;16.42;;;2.95;;
28629;SDS011;15817;42.130;24.762;2023-08-06T12:43:06;7.72;;;2.45;;
28629;SDS011;15817;42.130;24.762;2023-08-06T12:45:32;5.53;;;2.00;;
28629;SDS011;15817;42.130;24.762;2023-08-06T12:47:58;3.10;;;1.98;;
28629;SDS011;15817;42.130;24.762;2023-08-06T12:50:24;1.75;;;1.60;;
28629;SDS011;15817;42.130;24.762;2023-08-06T12:52:50;2.58;;;1.85;;
28629;SDS011;15817;42.130;24.762;2023-08-06T12:55:16;1.80;;;1.70;;
28629;SDS011;15817;42.130;24.762;2023-08-06T12:57:42;3.10;;;2.38;;
28629;SDS011;15817;42.130;24.762;2023-08-06T13:00:07;1.75;;;1.60;;
28629;SDS011;15817;42.130;24.762;2023-08-06T13:02:34;2.30;;;1.85;;
28629;SDS011;15817;42.130;24.762;2023-08-06T13:04:59;2.90;;;1.85;;
28629;SDS011;15817;42.130;24.762;2023-08-06T13:07:28;11.68;;;2.20;;
28629;SDS011;15817;42.130;24.762;2023-08-06T13:09:54;3.17;;;1.88;;
28629;SDS011;15817;42.130;24.762;2023-08-06T13:12:19;6.70;;;1.83;;
28629;SDS011;15817;42.130;24.762;2023-08-06T13:14:48;2.42;;;1.67;;
28629;SDS011;15817;42.130;24.762;2023-08-06T13:17:14;9.30;;;2.65;;
28629;SDS011;15817;42.130;24.762;2023-08-06T13:19:40;4.65;;;1.88;;
28629;SDS011;15817;42.130;24.762;2023-08-06T13:22:05;2.53;;;1.90;;
28629;SDS011;15817;42.130;24.762;2023-08-06T13:24:34;2.28;;;1.77;;
28629;SDS011;15817;42.130;24.762;2023-08-06T13:27:00;2.42;;;2.20;;
28629;SDS011;15817;42.130;24.762;2023-08-06T13:29:26;2.10;;;1.90;;
28629;SDS011;15817;42.130;24.762;2023-08-06T13:31:53;27.25;;;3.22;;
28629;SDS011;15817;42.130;24.762;2023-08-06T13:34:19;3.08;;;1.85;;
28629;SDS011;15817;42.130;24.762;2023-08-06T13:36:45;2.22;;;1.70;;
28629;SDS011;15817;42.130;24.762;2023-08-06T13:39:10;2.55;;;1.77;;
28629;SDS011;15817;42.130;24.762;2023-08-06T13:41:37;4.22;;;2.08;;
28629;SDS011;15817;42.130;24.762;2023-08-06T13:44:04;3.85;;;2.38;;
28629;SDS011;15817;42.130;24.762;2023-08-06T13:46:30;7.55;;;2.50;;
28629;SDS011;15817;42.130;24.762;2023-08-06T13:49:05;6.45;;;2.00;;
28629;SDS011;15817;42.130;24.762;2023-08-06T13:51:34;4.40;;;1.98;;
28629;SDS011;15817;42.130;24.762;2023-08-06T13:54:08;4.78;;;1.50;;
28629;SDS011;15817;42.130;24.762;2023-08-06T13:56:34;1.95;;;1.40;;
28629;SDS011;15817;42.130;24.762;2023-08-06T13:59:01;1.80;;;1.65;;
28629;SDS011;15817;42.130;24.762;2023-08-06T14:01:31;2.15;;;1.52;;
28629;SDS011;15817;42.130;24.762;2023-08-06T14:03:59;7.50;;;1.73;;
28629;SDS011;15817;42.130;24.762;2023-08-06T14:06:28;2.47;;;1.50;;
28629;SDS011;15817;42.130;24.762;2023-08-06T14:08:53;9.30;;;1.65;;
28629;SDS011;15817;42.130;24.762;2023-08-06T14:11:19;1.52;;;1.42;;
28629;SDS011;15817;42.130;24.762;2023-08-06T14:13:45;3.40;;;1.63;;
28629;SDS011;15817;42.130;24.762;2023-08-06T14:16:14;1.95;;;1.45;;
28629;SDS011;15817;42.130;24.762;2023-08-06T14:18:46;13.75;;;2.40;;
28629;SDS011;15817;42.130;24.762;2023-08-06T14:21:12;3.63;;;1.30;;
28629;SDS011;15817;42.130;24.762;2023-08-06T14:23:37;2.10;;;1.40;;
28629;SDS011;15817;42.130;24.762;2023-08-06T14:26:03;1.80;;;1.17;;
28629;SDS011;15817;42.130;24.762;2023-08-06T14:28:29;3.97;;;1.50;;
28629;SDS011;15817;42.130;24.762;2023-08-06T14:31:01;2.58;;;1.33;;
28629;SDS011;15817;42.130;24.762;2023-08-06T14:33:30;19.30;;;2.80;;
28629;SDS011;15817;42.130;24.762;2023-08-06T14:35:56;2.55;;;1.40;;
28629;SDS011;15817;42.130;24.762;2023-08-06T14:38:22;2.75;;;1.42;;
28629;SDS011;15817;42.130;24.762;2023-08-06T14:40:48;3.35;;;1.50;;
28629;SDS011;15817;42.130;24.762;2023-08-06T14:43:17;2.35;;;1.90;;